sensor_id;sensor_type;location;lat;lon;timestamp;temperature;humidity
38514;DHT22;24282;48.400;10.808;2023-07-13T00:01:48;19.10;90.00
38514;DHT22;24282;48.400;10.808;2023-07-13T00:04:19;19.10;90.00
38514;DHT22;24282;48.400;10.808;2023-07-13T00:06:46;19.10;90.00
38514;DHT22;24282;48.400;10.808;2023-07-13T00:09:16;19.10;90.00
38514;DHT22;24282;48.400;10.808;2023-07-13T00:11:43;19.10;90.00
38514;DHT22;24282;48.400;10.808;2023-07-13T00:14:10;19.10;90.00
38514;DHT22;24282;48.400;10.808;2023-07-13T00:16:37;19.10;89.90
38514;DHT22;24282;48.400;10.808;2023-07-13T00:19:04;19.10;89.90
38514;DHT22;24282;48.400;10.808;2023-07-13T00:21:30;19.10;89.90
38514;DHT22;24282;48.400;10.808;2023-07-13T00:23:56;19.10;89.80
38514;DHT22;24282;48.400;10.808;2023-07-13T00:26:22;19.10;89.80
38514;DHT22;24282;48.400;10.808;2023-07-13T00:28:50;19.10;89.80
38514;DHT22;24282;48.400;10.808;2023-07-13T00:31:17;19.10;89.80
38514;DHT22;24282;48.400;10.808;2023-07-13T00:33:43;19.10;89.90
38514;DHT22;24282;48.400;10.808;2023-07-13T00:36:10;19.00;89.90
38514;DHT22;24282;48.400;10.808;2023-07-13T00:38:36;19.10;90.00
38514;DHT22;24282;48.400;10.808;2023-07-13T00:41:03;19.10;89.90
38514;DHT22;24282;48.400;10.808;2023-07-13T00:43:30;19.00;89.90
38514;DHT22;24282;48.400;10.808;2023-07-13T00:48:25;19.10;89.80
38514;DHT22;24282;48.400;10.808;2023-07-13T00:50:53;19.10;90.00
38514;DHT22;24282;48.400;10.808;2023-07-13T00:53:20;19.10;89.90
38514;DHT22;24282;48.400;10.808;2023-07-13T00:55:50;19.10;89.90
38514;DHT22;24282;48.400;10.808;2023-07-13T00:58:16;19.10;90.10
38514;DHT22;24282;48.400;10.808;2023-07-13T01:00:42;19.10;90.10
38514;DHT22;24282;48.400;10.808;2023-07-13T01:03:08;19.10;90.10
38514;DHT22;24282;48.400;10.808;2023-07-13T01:05:35;19.10;90.30
38514;DHT22;24282;48.400;10.808;2023-07-13T01:08:03;19.10;90.30
38514;DHT22;24282;48.400;10.808;2023-07-13T01:10:32;19.10;90.40
38514;DHT22;24282;48.400;10.808;2023-07-13T01:13:05;19.10;90.40
38514;DHT22;24282;48.400;10.808;2023-07-13T01:18:15;19.10;90.40
38514;DHT22;24282;48.400;10.808;2023-07-13T01:20:55;19.10;90.30
38514;DHT22;24282;48.400;10.808;2023-07-13T01:23:22;19.10;90.30
38514;DHT22;24282;48.400;10.808;2023-07-13T01:25:48;19.10;90.30
38514;DHT22;24282;48.400;10.808;2023-07-13T01:28:14;19.10;90.40
38514;DHT22;24282;48.400;10.808;2023-07-13T01:30:43;19.10;90.30
38514;DHT22;24282;48.400;10.808;2023-07-13T01:33:12;19.10;90.40
38514;DHT22;24282;48.400;10.808;2023-07-13T01:35:39;19.10;90.30
38514;DHT22;24282;48.400;10.808;2023-07-13T01:38:05;19.10;90.40
38514;DHT22;24282;48.400;10.808;2023-07-13T01:40:31;19.10;90.30
38514;DHT22;24282;48.400;10.808;2023-07-13T01:42:58;19.10;90.10
38514;DHT22;24282;48.400;10.808;2023-07-13T01:45:24;19.10;90.20
38514;DHT22;24282;48.400;10.808;2023-07-13T01:47:50;19.10;90.30
38514;DHT22;24282;48.400;10.808;2023-07-13T01:50:16;19.10;90.20
38514;DHT22;24282;48.400;10.808;2023-07-13T01:52:41;19.10;90.10
38514;DHT22;24282;48.400;10.808;2023-07-13T01:55:08;19.10;90.10
38514;DHT22;24282;48.400;10.808;2023-07-13T01:57:33;19.10;90.00
38514;DHT22;24282;48.400;10.808;2023-07-13T02:00:02;19.10;90.00
38514;DHT22;24282;48.400;10.808;2023-07-13T02:02:28;19.10;90.10
38514;DHT22;24282;48.400;10.808;2023-07-13T02:04:54;19.10;90.20
38514;DHT22;24282;48.400;10.808;2023-07-13T02:07:22;19.10;90.20
38514;DHT22;24282;48.400;10.808;2023-07-13T02:09:48;19.10;90.10
38514;DHT22;24282;48.400;10.808;2023-07-13T02:12:16;19.10;90.20
38514;DHT22;24282;48.400;10.808;2023-07-13T02:14:42;19.10;90.30
38514;DHT22;24282;48.400;10.808;2023-07-13T02:17:10;19.10;90.30
38514;DHT22;24282;48.400;10.808;2023-07-13T02:19:36;19.10;90.20
38514;DHT22;24282;48.400;10.808;2023-07-13T02:22:02;19.10;90.20
38514;DHT22;24282;48.400;10.808;2023-07-13T02:24:28;19.00;90.10
38514;DHT22;24282;48.400;10.808;2023-07-13T02:26:54;19.00;90.00
38514;DHT22;24282;48.400;10.808;2023-07-13T02:29:20;19.00;89.90
38514;DHT22;24282;48.400;10.808;2023-07-13T02:31:45;19.00;89.90
38514;DHT22;24282;48.400;10.808;2023-07-13T02:34:11;19.00;89.90
38514;DHT22;24282;48.400;10.808;2023-07-13T02:36:37;19.00;90.10
38514;DHT22;24282;48.400;10.808;2023-07-13T02:39:05;18.90;90.20
38514;DHT22;24282;48.400;10.808;2023-07-13T02:41:30;18.90;90.10
38514;DHT22;24282;48.400;10.808;2023-07-13T02:43:58;18.90;90.10
38514;DHT22;24282;48.400;10.808;2023-07-13T02:46:33;18.90;90.00
38514;DHT22;24282;48.400;10.808;2023-07-13T02:49:00;18.90;89.90
38514;DHT22;24282;48.400;10.808;2023-07-13T02:51:26;18.90;89.90
38514;DHT22;24282;48.400;10.808;2023-07-13T02:53:52;18.90;90.00
38514;DHT22;24282;48.400;10.808;2023-07-13T02:56:26;18.90;89.90
38514;DHT22;24282;48.400;10.808;2023-07-13T02:58:52;18.80;89.90
38514;DHT22;24282;48.400;10.808;2023-07-13T03:01:19;18.80;89.90
38514;DHT22;24282;48.400;10.808;2023-07-13T03:03:46;18.80;90.00
38514;DHT22;24282;48.400;10.808;2023-07-13T03:06:13;18.80;89.90
38514;DHT22;24282;48.400;10.808;2023-07-13T03:08:46;18.80;89.80
38514;DHT22;24282;48.400;10.808;2023-07-13T03:11:16;18.70;89.70
38514;DHT22;24282;48.400;10.808;2023-07-13T03:13:44;18.70;89.70
38514;DHT22;24282;48.400;10.808;2023-07-13T03:16:11;18.70;89.50
38514;DHT22;24282;48.400;10.808;2023-07-13T03:18:38;18.70;89.50
38514;DHT22;24282;48.400;10.808;2023-07-13T03:21:07;18.70;89.10
38514;DHT22;24282;48.400;10.808;2023-07-13T03:23:33;18.70;89.00
38514;DHT22;24282;48.400;10.808;2023-07-13T03:26:13;18.60;88.90
38514;DHT22;24282;48.400;10.808;2023-07-13T03:28:41;18.60;88.80
38514;DHT22;24282;48.400;10.808;2023-07-13T03:31:12;18.60;88.90
38514;DHT22;24282;48.400;10.808;2023-07-13T03:33:40;18.50;88.50
38514;DHT22;24282;48.400;10.808;2023-07-13T03:36:09;18.50;88.50
38514;DHT22;24282;48.400;10.808;2023-07-13T03:38:35;18.50;88.60
38514;DHT22;24282;48.400;10.808;2023-07-13T03:41:03;18.40;88.60
38514;DHT22;24282;48.400;10.808;2023-07-13T03:43:30;18.40;88.70
38514;DHT22;24282;48.400;10.808;2023-07-13T03:45:55;18.40;88.80
38514;DHT22;24282;48.400;10.808;2023-07-13T03:48:21;18.40;88.90
38514;DHT22;24282;48.400;10.808;2023-07-13T03:50:47;18.40;89.00
38514;DHT22;24282;48.400;10.808;2023-07-13T03:53:15;18.30;89.10
38514;DHT22;24282;48.400;10.808;2023-07-13T03:55:40;18.30;89.20
38514;DHT22;24282;48.400;10.808;2023-07-13T04:00:54;18.30;89.40
38514;DHT22;24282;48.400;10.808;2023-07-13T04:03:20;18.30;89.40
38514;DHT22;24282;48.400;10.808;2023-07-13T04:05:46;18.30;89.40
38514;DHT22;24282;48.400;10.808;2023-07-13T04:08:12;18.30;89.50
38514;DHT22;24282;48.400;10.808;2023-07-13T04:10:38;18.30;89.50
38514;DHT22;24282;48.400;10.808;2023-07-13T04:13:05;18.30;89.40
38514;DHT22;24282;48.400;10.808;2023-07-13T04:15:31;18.30;89.30
38514;DHT22;24282;48.400;10.808;2023-07-13T04:17:57;18.30;89.20
38514;DHT22;24282;48.400;10.808;2023-07-13T04:20:24;18.20;89.30
38514;DHT22;24282;48.400;10.808;2023-07-13T04:22:51;18.20;89.20
38514;DHT22;24282;48.400;10.808;2023-07-13T04:25:16;18.20;89.20
38514;DHT22;24282;48.400;10.808;2023-07-13T04:27:42;18.30;89.20
38514;DHT22;24282;48.400;10.808;2023-07-13T04:30:08;18.20;89.20
38514;DHT22;24282;48.400;10.808;2023-07-13T04:32:34;18.20;89.30
38514;DHT22;24282;48.400;10.808;2023-07-13T04:35:00;18.20;89.20
38514;DHT22;24282;48.400;10.808;2023-07-13T04:37:26;18.20;89.20
38514;DHT22;24282;48.400;10.808;2023-07-13T04:39:52;18.20;89.20
38514;DHT22;24282;48.400;10.808;2023-07-13T04:42:18;18.30;89.30
38514;DHT22;24282;48.400;10.808;2023-07-13T04:44:51;18.30;89.40
38514;DHT22;24282;48.400;10.808;2023-07-13T04:47:17;18.20;89.20
38514;DHT22;24282;48.400;10.808;2023-07-13T04:49:44;18.20;89.10
38514;DHT22;24282;48.400;10.808;2023-07-13T04:52:09;18.20;89.00
38514;DHT22;24282;48.400;10.808;2023-07-13T04:54:35;18.20;88.90
38514;DHT22;24282;48.400;10.808;2023-07-13T04:57:03;18.20;88.70
38514;DHT22;24282;48.400;10.808;2023-07-13T04:59:32;18.20;88.60
38514;DHT22;24282;48.400;10.808;2023-07-13T05:01:58;18.20;88.50
38514;DHT22;24282;48.400;10.808;2023-07-13T05:04:24;18.10;88.30
38514;DHT22;24282;48.400;10.808;2023-07-13T05:06:49;18.10;88.10
38514;DHT22;24282;48.400;10.808;2023-07-13T05:09:15;18.20;88.20
38514;DHT22;24282;48.400;10.808;2023-07-13T05:11:41;18.20;88.50
38514;DHT22;24282;48.400;10.808;2023-07-13T05:14:07;18.20;88.60
38514;DHT22;24282;48.400;10.808;2023-07-13T05:16:35;18.20;88.80
38514;DHT22;24282;48.400;10.808;2023-07-13T05:19:01;18.20;88.70
38514;DHT22;24282;48.400;10.808;2023-07-13T05:21:27;18.30;88.80
38514;DHT22;24282;48.400;10.808;2023-07-13T05:23:52;18.30;88.80
38514;DHT22;24282;48.400;10.808;2023-07-13T05:26:18;18.30;88.60
38514;DHT22;24282;48.400;10.808;2023-07-13T05:28:44;18.30;88.30
38514;DHT22;24282;48.400;10.808;2023-07-13T05:31:10;18.40;88.30
38514;DHT22;24282;48.400;10.808;2023-07-13T05:33:36;18.40;88.40
38514;DHT22;24282;48.400;10.808;2023-07-13T05:36:02;18.40;88.40
38514;DHT22;24282;48.400;10.808;2023-07-13T05:38:28;18.40;88.40
38514;DHT22;24282;48.400;10.808;2023-07-13T05:40:55;18.40;88.40
38514;DHT22;24282;48.400;10.808;2023-07-13T05:43:21;18.40;87.90
38514;DHT22;24282;48.400;10.808;2023-07-13T05:45:48;18.40;87.40
38514;DHT22;24282;48.400;10.808;2023-07-13T05:48:14;18.40;86.90
38514;DHT22;24282;48.400;10.808;2023-07-13T05:50:40;18.40;86.40
38514;DHT22;24282;48.400;10.808;2023-07-13T05:53:06;18.40;86.50
38514;DHT22;24282;48.400;10.808;2023-07-13T05:55:32;18.40;86.80
38514;DHT22;24282;48.400;10.808;2023-07-13T05:58:00;18.30;85.80
38514;DHT22;24282;48.400;10.808;2023-07-13T06:00:26;18.30;86.00
38514;DHT22;24282;48.400;10.808;2023-07-13T06:02:52;18.30;85.70
38514;DHT22;24282;48.400;10.808;2023-07-13T06:05:18;18.30;86.30
38514;DHT22;24282;48.400;10.808;2023-07-13T06:07:43;18.30;86.50
38514;DHT22;24282;48.400;10.808;2023-07-13T06:10:09;18.20;86.90
38514;DHT22;24282;48.400;10.808;2023-07-13T06:12:35;18.20;86.40
38514;DHT22;24282;48.400;10.808;2023-07-13T06:15:01;18.20;86.00
38514;DHT22;24282;48.400;10.808;2023-07-13T06:17:27;18.20;85.90
38514;DHT22;24282;48.400;10.808;2023-07-13T06:19:52;18.10;85.20
38514;DHT22;24282;48.400;10.808;2023-07-13T06:22:18;18.20;86.10
38514;DHT22;24282;48.400;10.808;2023-07-13T06:24:44;18.10;86.70
38514;DHT22;24282;48.400;10.808;2023-07-13T06:27:09;18.10;86.90
38514;DHT22;24282;48.400;10.808;2023-07-13T06:29:35;18.10;87.00
38514;DHT22;24282;48.400;10.808;2023-07-13T06:32:01;18.10;87.10
38514;DHT22;24282;48.400;10.808;2023-07-13T06:34:27;18.00;87.40
38514;DHT22;24282;48.400;10.808;2023-07-13T06:36:53;18.00;87.50
38514;DHT22;24282;48.400;10.808;2023-07-13T06:39:19;18.00;87.60
38514;DHT22;24282;48.400;10.808;2023-07-13T06:41:44;18.00;87.60
38514;DHT22;24282;48.400;10.808;2023-07-13T06:44:13;18.00;87.60
38514;DHT22;24282;48.400;10.808;2023-07-13T06:46:38;18.00;87.60
38514;DHT22;24282;48.400;10.808;2023-07-13T06:49:04;18.00;87.70
38514;DHT22;24282;48.400;10.808;2023-07-13T06:51:30;17.90;87.90
38514;DHT22;24282;48.400;10.808;2023-07-13T06:53:56;18.00;88.00
38514;DHT22;24282;48.400;10.808;2023-07-13T06:56:21;18.00;88.10
38514;DHT22;24282;48.400;10.808;2023-07-13T06:58:47;18.10;87.90
38514;DHT22;24282;48.400;10.808;2023-07-13T07:01:13;18.10;87.30
38514;DHT22;24282;48.400;10.808;2023-07-13T07:03:38;18.20;87.20
38514;DHT22;24282;48.400;10.808;2023-07-13T07:06:17;18.30;87.40
38514;DHT22;24282;48.400;10.808;2023-07-13T07:08:43;18.30;87.30
38514;DHT22;24282;48.400;10.808;2023-07-13T07:11:16;18.40;87.60
38514;DHT22;24282;48.400;10.808;2023-07-13T07:13:42;18.40;87.20
38514;DHT22;24282;48.400;10.808;2023-07-13T07:16:08;18.50;87.30
38514;DHT22;24282;48.400;10.808;2023-07-13T07:18:34;18.50;86.80
38514;DHT22;24282;48.400;10.808;2023-07-13T07:21:00;18.50;86.10
38514;DHT22;24282;48.400;10.808;2023-07-13T07:23:26;18.50;86.10
38514;DHT22;24282;48.400;10.808;2023-07-13T07:25:52;18.50;86.00
38514;DHT22;24282;48.400;10.808;2023-07-13T07:28:18;18.60;85.50
38514;DHT22;24282;48.400;10.808;2023-07-13T07:30:45;18.70;84.60
38514;DHT22;24282;48.400;10.808;2023-07-13T07:33:11;18.80;85.30
38514;DHT22;24282;48.400;10.808;2023-07-13T07:35:37;18.80;84.80
38514;DHT22;24282;48.400;10.808;2023-07-13T07:38:03;18.90;84.80
38514;DHT22;24282;48.400;10.808;2023-07-13T07:40:28;18.90;85.10
38514;DHT22;24282;48.400;10.808;2023-07-13T07:42:54;18.90;84.50
38514;DHT22;24282;48.400;10.808;2023-07-13T07:45:20;19.00;81.80
38514;DHT22;24282;48.400;10.808;2023-07-13T07:47:46;19.00;81.00
38514;DHT22;24282;48.400;10.808;2023-07-13T07:50:13;19.00;82.20
38514;DHT22;24282;48.400;10.808;2023-07-13T07:52:38;19.10;82.80
38514;DHT22;24282;48.400;10.808;2023-07-13T07:55:05;19.10;82.30
38514;DHT22;24282;48.400;10.808;2023-07-13T07:57:32;19.10;82.00
38514;DHT22;24282;48.400;10.808;2023-07-13T07:59:57;19.10;81.50
38514;DHT22;24282;48.400;10.808;2023-07-13T08:02:25;19.10;81.10
38514;DHT22;24282;48.400;10.808;2023-07-13T08:04:51;19.10;81.00
38514;DHT22;24282;48.400;10.808;2023-07-13T08:07:16;19.10;79.10
38514;DHT22;24282;48.400;10.808;2023-07-13T08:09:42;19.10;80.10
38514;DHT22;24282;48.400;10.808;2023-07-13T08:12:08;19.20;77.80
38514;DHT22;24282;48.400;10.808;2023-07-13T08:14:34;19.20;78.90
38514;DHT22;24282;48.400;10.808;2023-07-13T08:17:00;19.20;80.90
38514;DHT22;24282;48.400;10.808;2023-07-13T08:19:25;19.30;80.00
38514;DHT22;24282;48.400;10.808;2023-07-13T08:21:51;19.30;79.30
38514;DHT22;24282;48.400;10.808;2023-07-13T08:24:17;19.30;78.90
38514;DHT22;24282;48.400;10.808;2023-07-13T08:26:44;19.40;79.20
38514;DHT22;24282;48.400;10.808;2023-07-13T08:29:11;19.40;78.90
38514;DHT22;24282;48.400;10.808;2023-07-13T08:31:37;19.40;77.40
38514;DHT22;24282;48.400;10.808;2023-07-13T08:34:03;19.60;79.10
38514;DHT22;24282;48.400;10.808;2023-07-13T08:36:29;19.70;77.60
38514;DHT22;24282;48.400;10.808;2023-07-13T08:38:55;19.90;77.40
38514;DHT22;24282;48.400;10.808;2023-07-13T08:41:21;19.90;78.00
38514;DHT22;24282;48.400;10.808;2023-07-13T08:43:56;19.90;78.90
38514;DHT22;24282;48.400;10.808;2023-07-13T08:46:36;19.90;76.40
38514;DHT22;24282;48.400;10.808;2023-07-13T08:49:28;19.80;76.00
38514;DHT22;24282;48.400;10.808;2023-07-13T08:54:51;19.70;73.80
38514;DHT22;24282;48.400;10.808;2023-07-13T08:57:27;19.70;76.40
38514;DHT22;24282;48.400;10.808;2023-07-13T08:59:55;19.70;76.90
38514;DHT22;24282;48.400;10.808;2023-07-13T09:05:42;19.80;77.80
38514;DHT22;24282;48.400;10.808;2023-07-13T09:08:25;19.80;77.60
38514;DHT22;24282;48.400;10.808;2023-07-13T09:11:00;19.90;75.10
38514;DHT22;24282;48.400;10.808;2023-07-13T09:13:43;20.10;75.40
38514;DHT22;24282;48.400;10.808;2023-07-13T09:16:12;20.20;74.30
38514;DHT22;24282;48.400;10.808;2023-07-13T09:18:42;20.30;74.10
38514;DHT22;24282;48.400;10.808;2023-07-13T09:21:18;20.30;75.90
38514;DHT22;24282;48.400;10.808;2023-07-13T09:23:47;20.40;75.00
38514;DHT22;24282;48.400;10.808;2023-07-13T09:28:45;20.30;73.00
38514;DHT22;24282;48.400;10.808;2023-07-13T09:31:17;20.20;73.10
38514;DHT22;24282;48.400;10.808;2023-07-13T09:33:44;20.20;72.70
38514;DHT22;24282;48.400;10.808;2023-07-13T09:36:31;20.10;72.50
38514;DHT22;24282;48.400;10.808;2023-07-13T09:39:37;20.10;74.60
38514;DHT22;24282;48.400;10.808;2023-07-13T09:42:18;20.10;75.00
38514;DHT22;24282;48.400;10.808;2023-07-13T09:47:18;20.10;71.80
38514;DHT22;24282;48.400;10.808;2023-07-13T09:49:45;20.20;69.70
38514;DHT22;24282;48.400;10.808;2023-07-13T09:52:14;20.20;71.90
38514;DHT22;24282;48.400;10.808;2023-07-13T09:54:44;20.20;73.60
38514;DHT22;24282;48.400;10.808;2023-07-13T09:57:15;20.10;73.20
38514;DHT22;24282;48.400;10.808;2023-07-13T09:59:50;20.00;73.40
38514;DHT22;24282;48.400;10.808;2023-07-13T10:05:06;20.00;70.20
38514;DHT22;24282;48.400;10.808;2023-07-13T10:07:38;20.00;70.30
38514;DHT22;24282;48.400;10.808;2023-07-13T10:10:17;20.30;70.90
38514;DHT22;24282;48.400;10.808;2023-07-13T10:12:44;20.60;70.30
38514;DHT22;24282;48.400;10.808;2023-07-13T10:15:22;20.80;69.80
38514;DHT22;24282;48.400;10.808;2023-07-13T10:17:49;21.00;68.90
38514;DHT22;24282;48.400;10.808;2023-07-13T10:20:16;21.30;67.80
38514;DHT22;24282;48.400;10.808;2023-07-13T10:22:59;21.40;67.20
38514;DHT22;24282;48.400;10.808;2023-07-13T10:25:32;21.60;66.50
38514;DHT22;24282;48.400;10.808;2023-07-13T10:30:48;21.70;67.10
38514;DHT22;24282;48.400;10.808;2023-07-13T10:33:15;21.70;68.80
38514;DHT22;24282;48.400;10.808;2023-07-13T10:35:43;21.80;68.20
38514;DHT22;24282;48.400;10.808;2023-07-13T10:38:14;21.70;66.90
38514;DHT22;24282;48.400;10.808;2023-07-13T10:43:25;21.50;61.80
38514;DHT22;24282;48.400;10.808;2023-07-13T10:45:52;21.50;63.50
38514;DHT22;24282;48.400;10.808;2023-07-13T10:48:20;21.60;62.70
38514;DHT22;24282;48.400;10.808;2023-07-13T10:50:50;21.80;61.70
38514;DHT22;24282;48.400;10.808;2023-07-13T10:53:19;22.30;59.20
38514;DHT22;24282;48.400;10.808;2023-07-13T10:58:32;22.90;54.40
38514;DHT22;24282;48.400;10.808;2023-07-13T11:01:17;23.20;52.60
38514;DHT22;24282;48.400;10.808;2023-07-13T11:06:36;23.60;56.10
38514;DHT22;24282;48.400;10.808;2023-07-13T11:12:02;23.80;58.70
38514;DHT22;24282;48.400;10.808;2023-07-13T11:14:34;23.90;57.60
38514;DHT22;24282;48.400;10.808;2023-07-13T11:23:06;24.10;50.60
38514;DHT22;24282;48.400;10.808;2023-07-13T11:25:31;24.20;53.50
38514;DHT22;24282;48.400;10.808;2023-07-13T11:33:53;24.80;51.90
38514;DHT22;24282;48.400;10.808;2023-07-13T11:36:22;24.70;53.50
38514;DHT22;24282;48.400;10.808;2023-07-13T11:39:03;24.80;51.40
38514;DHT22;24282;48.400;10.808;2023-07-13T11:41:51;24.80;53.40
38514;DHT22;24282;48.400;10.808;2023-07-13T11:44:20;24.90;53.10
38514;DHT22;24282;48.400;10.808;2023-07-13T11:47:10;25.10;53.30
38514;DHT22;24282;48.400;10.808;2023-07-13T11:49:49;25.20;52.60
38514;DHT22;24282;48.400;10.808;2023-07-13T11:52:18;25.20;49.90
38514;DHT22;24282;48.400;10.808;2023-07-13T11:54:53;25.30;50.30
38514;DHT22;24282;48.400;10.808;2023-07-13T11:57:28;25.30;50.80
38514;DHT22;24282;48.400;10.808;2023-07-13T11:59:55;25.20;49.60
38514;DHT22;24282;48.400;10.808;2023-07-13T12:02:45;25.20;51.80
38514;DHT22;24282;48.400;10.808;2023-07-13T12:05:13;25.30;52.00
38514;DHT22;24282;48.400;10.808;2023-07-13T12:07:40;25.30;49.60
38514;DHT22;24282;48.400;10.808;2023-07-13T12:12:40;25.10;50.60
38514;DHT22;24282;48.400;10.808;2023-07-13T12:15:11;24.90;50.20
38514;DHT22;24282;48.400;10.808;2023-07-13T12:17:38;24.90;50.20
38514;DHT22;24282;48.400;10.808;2023-07-13T12:20:24;24.80;52.10
38514;DHT22;24282;48.400;10.808;2023-07-13T12:22:51;24.80;52.50
38514;DHT22;24282;48.400;10.808;2023-07-13T12:25:18;24.60;51.40
38514;DHT22;24282;48.400;10.808;2023-07-13T12:27:51;24.70;50.10
38514;DHT22;24282;48.400;10.808;2023-07-13T12:33:21;25.10;51.50
38514;DHT22;24282;48.400;10.808;2023-07-13T12:35:52;25.30;48.70
38514;DHT22;24282;48.400;10.808;2023-07-13T12:38:18;25.40;48.80
38514;DHT22;24282;48.400;10.808;2023-07-13T12:40:49;25.50;49.70
38514;DHT22;24282;48.400;10.808;2023-07-13T12:43:16;25.40;49.00
38514;DHT22;24282;48.400;10.808;2023-07-13T12:46:19;25.50;49.80
38514;DHT22;24282;48.400;10.808;2023-07-13T12:48:43;25.60;51.10
38514;DHT22;24282;48.400;10.808;2023-07-13T12:51:14;25.80;49.60
38514;DHT22;24282;48.400;10.808;2023-07-13T12:53:47;26.00;46.30
38514;DHT22;24282;48.400;10.808;2023-07-13T12:56:23;26.10;45.60
38514;DHT22;24282;48.400;10.808;2023-07-13T12:58:52;26.00;46.40
38514;DHT22;24282;48.400;10.808;2023-07-13T13:01:21;25.90;47.00
38514;DHT22;24282;48.400;10.808;2023-07-13T13:03:52;25.80;46.30
38514;DHT22;24282;48.400;10.808;2023-07-13T13:08:55;25.30;48.30
38514;DHT22;24282;48.400;10.808;2023-07-13T13:11:22;25.30;48.00
38514;DHT22;24282;48.400;10.808;2023-07-13T13:13:49;25.40;48.60
38514;DHT22;24282;48.400;10.808;2023-07-13T13:18:43;25.80;49.40
38514;DHT22;24282;48.400;10.808;2023-07-13T13:21:10;25.90;50.30
38514;DHT22;24282;48.400;10.808;2023-07-13T13:23:37;26.10;48.30
38514;DHT22;24282;48.400;10.808;2023-07-13T13:26:02;26.00;47.80
38514;DHT22;24282;48.400;10.808;2023-07-13T13:28:29;25.90;48.20
38514;DHT22;24282;48.400;10.808;2023-07-13T13:30:55;25.90;48.30
38514;DHT22;24282;48.400;10.808;2023-07-13T13:33:21;25.80;48.50
38514;DHT22;24282;48.400;10.808;2023-07-13T13:35:47;25.90;45.70
38514;DHT22;24282;48.400;10.808;2023-07-13T13:38:18;26.00;46.70
38514;DHT22;24282;48.400;10.808;2023-07-13T13:40:45;26.10;46.10
38514;DHT22;24282;48.400;10.808;2023-07-13T13:43:18;26.30;47.80
38514;DHT22;24282;48.400;10.808;2023-07-13T13:45:45;26.50;48.20
38514;DHT22;24282;48.400;10.808;2023-07-13T13:48:20;26.60;47.50
38514;DHT22;24282;48.400;10.808;2023-07-13T13:50:48;26.50;48.30
38514;DHT22;24282;48.400;10.808;2023-07-13T13:53:14;26.40;45.80
38514;DHT22;24282;48.400;10.808;2023-07-13T13:55:40;26.40;46.60
38514;DHT22;24282;48.400;10.808;2023-07-13T13:58:10;26.50;44.50
38514;DHT22;24282;48.400;10.808;2023-07-13T14:00:37;26.50;44.80
38514;DHT22;24282;48.400;10.808;2023-07-13T14:03:03;26.60;44.30
38514;DHT22;24282;48.400;10.808;2023-07-13T14:05:29;26.60;43.90
38514;DHT22;24282;48.400;10.808;2023-07-13T14:07:56;26.80;45.00
38514;DHT22;24282;48.400;10.808;2023-07-13T14:10:25;26.80;44.50
38514;DHT22;24282;48.400;10.808;2023-07-13T14:12:53;26.90;44.50
38514;DHT22;24282;48.400;10.808;2023-07-13T14:15:25;26.90;44.50
38514;DHT22;24282;48.400;10.808;2023-07-13T14:17:52;27.00;43.30
38514;DHT22;24282;48.400;10.808;2023-07-13T14:20:20;27.10;45.30
38514;DHT22;24282;48.400;10.808;2023-07-13T14:22:46;27.00;44.60
38514;DHT22;24282;48.400;10.808;2023-07-13T14:25:13;27.00;43.90
38514;DHT22;24282;48.400;10.808;2023-07-13T14:27:40;27.00;42.20
38514;DHT22;24282;48.400;10.808;2023-07-13T14:32:40;26.80;45.00
38514;DHT22;24282;48.400;10.808;2023-07-13T14:35:10;26.80;44.20
38514;DHT22;24282;48.400;10.808;2023-07-13T14:37:36;26.80;44.20
38514;DHT22;24282;48.400;10.808;2023-07-13T14:40:01;26.90;44.10
38514;DHT22;24282;48.400;10.808;2023-07-13T14:42:27;27.00;45.00
38514;DHT22;24282;48.400;10.808;2023-07-13T14:44:54;27.00;42.50
38514;DHT22;24282;48.400;10.808;2023-07-13T14:47:20;27.10;41.20
38514;DHT22;24282;48.400;10.808;2023-07-13T14:49:45;27.10;40.80
38514;DHT22;24282;48.400;10.808;2023-07-13T14:52:18;27.10;41.10
38514;DHT22;24282;48.400;10.808;2023-07-13T14:54:45;27.00;43.40
38514;DHT22;24282;48.400;10.808;2023-07-13T14:57:13;26.90;44.30
38514;DHT22;24282;48.400;10.808;2023-07-13T14:59:40;26.70;42.70
38514;DHT22;24282;48.400;10.808;2023-07-13T15:02:17;26.30;45.60
38514;DHT22;24282;48.400;10.808;2023-07-13T15:04:44;26.30;46.60
38514;DHT22;24282;48.400;10.808;2023-07-13T15:07:11;26.40;47.00
38514;DHT22;24282;48.400;10.808;2023-07-13T15:09:36;26.50;45.00
38514;DHT22;24282;48.400;10.808;2023-07-13T15:12:02;26.60;43.00
38514;DHT22;24282;48.400;10.808;2023-07-13T15:14:28;26.70;42.20
38514;DHT22;24282;48.400;10.808;2023-07-13T15:16:55;26.80;42.80
38514;DHT22;24282;48.400;10.808;2023-07-13T15:19:22;26.90;41.70
38514;DHT22;24282;48.400;10.808;2023-07-13T15:21:49;26.90;42.80
38514;DHT22;24282;48.400;10.808;2023-07-13T15:24:15;26.90;40.20
38514;DHT22;24282;48.400;10.808;2023-07-13T15:26:42;26.90;41.90
38514;DHT22;24282;48.400;10.808;2023-07-13T15:29:11;27.00;41.80
38514;DHT22;24282;48.400;10.808;2023-07-13T15:31:37;27.00;41.80
38514;DHT22;24282;48.400;10.808;2023-07-13T15:34:16;26.90;40.40
38514;DHT22;24282;48.400;10.808;2023-07-13T15:36:43;26.90;41.90
38514;DHT22;24282;48.400;10.808;2023-07-13T15:39:14;27.00;41.10
38514;DHT22;24282;48.400;10.808;2023-07-13T15:41:42;27.00;41.40
38514;DHT22;24282;48.400;10.808;2023-07-13T15:44:26;27.00;42.50
38514;DHT22;24282;48.400;10.808;2023-07-13T15:46:54;27.00;43.40
38514;DHT22;24282;48.400;10.808;2023-07-13T15:49:20;27.10;43.90
38514;DHT22;24282;48.400;10.808;2023-07-13T15:51:47;27.10;41.00
38514;DHT22;24282;48.400;10.808;2023-07-13T15:54:15;27.10;42.60
38514;DHT22;24282;48.400;10.808;2023-07-13T15:56:41;27.00;41.40
38514;DHT22;24282;48.400;10.808;2023-07-13T15:59:11;26.90;40.80
38514;DHT22;24282;48.400;10.808;2023-07-13T16:01:38;26.80;42.60
38514;DHT22;24282;48.400;10.808;2023-07-13T16:04:04;26.80;43.40
38514;DHT22;24282;48.400;10.808;2023-07-13T16:06:35;26.70;43.20
38514;DHT22;24282;48.400;10.808;2023-07-13T16:09:03;26.70;43.50
38514;DHT22;24282;48.400;10.808;2023-07-13T16:11:36;26.60;44.20
38514;DHT22;24282;48.400;10.808;2023-07-13T16:14:03;26.50;45.70
38514;DHT22;24282;48.400;10.808;2023-07-13T16:16:32;26.50;46.30
38514;DHT22;24282;48.400;10.808;2023-07-13T16:19:03;26.40;45.70
38514;DHT22;24282;48.400;10.808;2023-07-13T16:21:32;26.00;46.90
38514;DHT22;24282;48.400;10.808;2023-07-13T16:24:00;25.80;48.40